createdAt,value
2018-03-03T00:01:27.809Z,24.57
2018-03-03T00:03:55.476Z,23.60
2018-03-03T00:06:23.174Z,23.97
2018-03-03T00:08:50.847Z,25.97
2018-03-03T00:11:18.515Z,25.40
2018-03-03T00:13:46.190Z,24.43
2018-03-03T00:16:13.784Z,24.73
2018-03-03T00:18:41.425Z,25.93
2018-03-03T00:21:09.083Z,23.40
2018-03-03T00:23:36.757Z,24.27
2018-03-03T00:26:08.382Z,24.87
2018-03-03T00:28:36.073Z,23.80
2018-03-03T00:31:03.743Z,24.53
2018-03-03T00:33:31.446Z,25.73
2018-03-03T00:35:59.129Z,25.00
2018-03-03T00:38:26.825Z,25.30
2018-03-03T00:40:54.499Z,26.67
2018-03-03T00:43:22.168Z,23.70
2018-03-03T00:45:49.841Z,25.87
2018-03-03T00:48:18.278Z,25.57
2018-03-03T00:50:45.952Z,25.20
2018-03-03T00:53:13.660Z,24.23
2018-03-03T00:55:42.480Z,25.87
2018-03-03T00:58:10.145Z,27.10
2018-03-03T01:00:37.826Z,26.63
2018-03-03T01:03:05.517Z,27.30
2018-03-03T01:05:33.208Z,25.63
2018-03-03T01:08:00.887Z,25.73
2018-03-03T01:10:28.548Z,26.33
2018-03-03T01:12:56.212Z,26.17
2018-03-03T01:15:23.853Z,26.10
2018-03-03T01:17:51.525Z,27.23
2018-03-03T01:20:19.168Z,26.57
2018-03-03T01:22:47.583Z,28.23
2018-03-03T01:25:15.382Z,26.90
2018-03-03T01:27:43.031Z,26.73
2018-03-03T01:30:10.693Z,27.43
2018-03-03T01:32:38.353Z,27.43
2018-03-03T01:35:06.010Z,27.23
2018-03-03T01:37:33.668Z,25.63
2018-03-03T01:40:01.312Z,27.30
2018-03-03T01:42:28.952Z,26.20
2018-03-03T01:44:56.606Z,27.40
2018-03-03T01:47:24.260Z,28.60
2018-03-03T01:49:51.927Z,28.63
2018-03-03T01:52:19.579Z,28.23
2018-03-03T01:54:47.303Z,28.20
2018-03-03T01:57:14.969Z,26.70
2018-03-03T01:59:42.677Z,27.33
2018-03-03T02:02:10.388Z,26.37
2018-03-03T02:04:37.995Z,27.37
2018-03-03T02:07:05.588Z,28.27
2018-03-03T02:09:33.259Z,28.47
2018-03-03T02:12:00.898Z,27.73
2018-03-03T02:14:28.559Z,26.47
2018-03-03T02:16:56.225Z,27.90
2018-03-03T02:19:24.638Z,28.77
2018-03-03T02:21:52.276Z,29.20
2018-03-03T02:24:19.927Z,28.80
2018-03-03T02:26:47.601Z,27.87
2018-03-03T02:29:16.063Z,27.47
2018-03-03T02:31:43.719Z,26.93
2018-03-03T02:34:11.392Z,28.03
2018-03-03T02:36:39.055Z,28.50
2018-03-03T02:39:06.715Z,28.83
2018-03-03T02:41:34.365Z,28.73
2018-03-03T02:44:02.735Z,27.90
2018-03-03T02:46:31.603Z,28.20
2018-03-03T02:48:59.297Z,28.30
2018-03-03T02:51:26.958Z,28.43
2018-03-03T02:53:54.631Z,29.03
2018-03-03T02:56:22.239Z,27.53
2018-03-03T02:58:49.930Z,29.13
2018-03-03T03:01:17.623Z,28.90
2018-03-03T03:03:45.274Z,28.13
2018-03-03T03:06:12.953Z,29.63
2018-03-03T03:08:40.592Z,28.93
2018-03-03T03:11:08.254Z,27.03
2018-03-03T03:13:35.956Z,28.83
2018-03-03T03:16:05.731Z,28.10
2018-03-03T03:18:33.376Z,27.93
2018-03-03T03:21:01.053Z,27.00
2018-03-03T03:23:28.749Z,27.90
2018-03-03T03:25:56.425Z,28.50
2018-03-03T03:28:24.898Z,28.93
2018-03-03T03:30:52.529Z,27.80
2018-03-03T03:33:20.207Z,29.77
2018-03-03T03:35:47.864Z,29.23
2018-03-03T03:38:15.530Z,27.90
2018-03-03T03:40:43.173Z,29.67
2018-03-03T03:43:10.839Z,28.97
2018-03-03T03:45:38.611Z,29.60
2018-03-03T03:48:06.267Z,28.83
2018-03-03T03:50:33.937Z,28.87
2018-03-03T03:53:01.598Z,29.40
2018-03-03T03:55:29.240Z,28.37
2018-03-03T03:57:57.609Z,28.03
2018-03-03T04:00:25.248Z,28.97
2018-03-03T04:02:52.897Z,30.23
2018-03-03T04:05:20.569Z,30.13
2018-03-03T04:07:49.040Z,28.73
2018-03-03T04:10:16.695Z,29.60
2018-03-03T04:12:44.344Z,29.80
2018-03-03T04:15:12.084Z,29.07
2018-03-03T04:17:39.744Z,29.50
2018-03-03T04:20:07.446Z,29.70
2018-03-03T04:22:35.115Z,29.33
2018-03-03T04:25:02.796Z,29.37
2018-03-03T04:27:31.274Z,28.30
2018-03-03T04:29:58.956Z,29.93
2018-03-03T04:32:27.429Z,29.73
2018-03-03T04:34:55.108Z,29.27
2018-03-03T04:37:22.819Z,28.77
2018-03-03T04:39:50.457Z,29.47
2018-03-03T04:42:18.119Z,29.57
2018-03-03T04:44:45.886Z,29.37
2018-03-03T04:47:13.575Z,28.87
2018-03-03T04:49:41.240Z,29.80
2018-03-03T04:52:08.929Z,27.93
2018-03-03T04:54:36.641Z,29.47
2018-03-03T04:57:04.364Z,27.73
2018-03-03T04:59:32.830Z,27.87
2018-03-03T05:05:20.672Z,28.63
2018-03-03T05:07:55.834Z,28.03
2018-03-03T05:10:25.286Z,29.23
2018-03-03T05:12:54.835Z,29.10
2018-03-03T05:15:22.495Z,27.50
2018-03-03T05:18:05.882Z,29.40
2018-03-03T05:20:53.103Z,28.50
2018-03-03T05:23:37.456Z,27.43
2018-03-03T05:26:10.574Z,28.40
2018-03-03T05:28:54.012Z,27.77
2018-03-03T05:31:27.314Z,29.60
2018-03-03T05:37:00.990Z,27.83
2018-03-03T05:39:47.257Z,27.73
2018-03-03T05:42:20.540Z,27.93
2018-03-03T05:44:53.700Z,26.53
2018-03-03T05:47:41.146Z,28.07
2018-03-03T05:50:24.584Z,28.13
2018-03-03T05:53:07.986Z,27.40
2018-03-03T05:55:41.211Z,26.63
2018-03-03T05:58:14.494Z,27.37
2018-03-03T06:00:47.730Z,27.57
2018-03-03T06:03:22.920Z,28.43
2018-03-03T06:05:52.513Z,27.63
2018-03-03T06:08:22.653Z,27.83
2018-03-03T06:10:51.859Z,28.33
2018-03-03T06:13:19.513Z,28.87
2018-03-03T06:15:47.177Z,28.33
2018-03-03T06:18:14.826Z,26.13
2018-03-03T06:20:42.509Z,27.93
2018-03-03T06:23:10.186Z,26.97
2018-03-03T06:25:37.833Z,26.70
2018-03-03T06:28:05.506Z,27.30
2018-03-03T06:30:33.177Z,26.70
2018-03-03T06:33:00.827Z,27.43
2018-03-03T06:35:28.571Z,27.70
2018-03-03T06:37:56.245Z,28.37
2018-03-03T06:40:23.911Z,26.97
2018-03-03T06:42:51.548Z,27.60
2018-03-03T06:45:19.196Z,26.83
2018-03-03T06:47:46.869Z,26.90
2018-03-03T06:50:14.543Z,26.20
2018-03-03T06:52:42.174Z,26.97
2018-03-03T06:55:09.828Z,27.30
2018-03-03T06:57:37.478Z,27.27
2018-03-03T07:00:05.159Z,28.47
2018-03-03T07:02:32.824Z,27.60
2018-03-03T07:05:08.496Z,26.97
2018-03-03T07:07:36.138Z,25.53
2018-03-03T07:10:03.842Z,26.60
2018-03-03T07:12:31.534Z,27.50
2018-03-03T07:15:00.077Z,26.20
2018-03-03T07:17:27.738Z,25.87
2018-03-03T07:19:55.382Z,27.60
2018-03-03T07:22:23.812Z,26.73
2018-03-03T07:24:51.502Z,24.97
2018-03-03T07:27:19.145Z,25.43
2018-03-03T07:29:46.799Z,26.53
2018-03-03T07:32:14.434Z,27.27
2018-03-03T07:34:45.705Z,27.43
2018-03-03T07:37:13.313Z,26.10
2018-03-03T07:39:41.755Z,25.13
2018-03-03T07:42:09.399Z,26.83
2018-03-03T07:44:37.065Z,26.80
2018-03-03T07:47:04.697Z,26.77
2018-03-03T07:49:32.356Z,26.77
2018-03-03T07:52:00.039Z,26.77
2018-03-03T07:54:27.700Z,27.07
2018-03-03T07:57:06.946Z,27.40
2018-03-03T07:59:34.625Z,27.33
2018-03-03T08:02:02.286Z,27.30
2018-03-03T08:04:30.589Z,27.17
2018-03-03T08:06:58.327Z,29.27
2018-03-03T08:09:26.022Z,26.93
2018-03-03T08:11:53.671Z,28.63
2018-03-03T08:14:21.295Z,27.93
2018-03-03T08:16:48.962Z,28.87
2018-03-03T08:19:16.614Z,27.80
2018-03-03T08:21:44.258Z,28.20
2018-03-03T08:24:12.692Z,27.77
2018-03-03T08:26:40.353Z,28.60
2018-03-03T08:29:08.018Z,26.33
2018-03-03T08:31:35.710Z,29.07
2018-03-03T08:34:03.361Z,27.17
2018-03-03T08:36:31.028Z,28.67
2018-03-03T08:38:58.707Z,28.30
2018-03-03T08:41:26.393Z,26.57
2018-03-03T08:43:54.088Z,29.60
2018-03-03T08:46:22.614Z,28.73
2018-03-03T08:48:50.347Z,27.57
2018-03-03T08:51:18.142Z,29.23
2018-03-03T08:53:45.882Z,27.00
2018-03-03T08:56:13.556Z,30.00
2018-03-03T08:58:41.248Z,29.30
2018-03-03T09:01:08.892Z,28.70
2018-03-03T09:03:36.522Z,28.90
2018-03-03T09:06:04.184Z,29.83
2018-03-03T09:08:31.864Z,29.47
2018-03-03T09:10:59.452Z,30.63
2018-03-03T09:13:27.140Z,29.83
2018-03-03T09:15:55.774Z,29.13
2018-03-03T09:18:23.434Z,29.67
2018-03-03T09:20:51.091Z,30.23
2018-03-03T09:23:18.775Z,30.60
2018-03-03T09:25:46.446Z,28.40
2018-03-03T09:28:14.030Z,31.77
2018-03-03T09:30:41.718Z,31.67
2018-03-03T09:33:09.374Z,31.03
2018-03-03T09:35:37.024Z,30.30
2018-03-03T09:38:04.675Z,30.20
2018-03-03T09:40:33.110Z,29.67
2018-03-03T09:43:00.762Z,31.93
2018-03-03T09:45:29.223Z,30.03
2018-03-03T09:47:56.892Z,30.73
2018-03-03T09:50:24.544Z,31.10
2018-03-03T09:52:52.229Z,31.77
2018-03-03T09:55:19.893Z,29.50
2018-03-03T09:57:47.560Z,28.83
2018-03-03T10:00:15.219Z,30.97
2018-03-03T10:02:42.852Z,32.23
2018-03-03T10:05:11.262Z,31.10
2018-03-03T10:07:38.913Z,31.83
2018-03-03T10:10:06.598Z,30.90
2018-03-03T10:12:34.270Z,32.13
2018-03-03T10:15:05.521Z,31.80
2018-03-03T10:17:33.203Z,31.27
2018-03-03T10:20:00.848Z,31.73
2018-03-03T10:22:28.523Z,30.73
2018-03-03T10:24:56.144Z,30.90
2018-03-03T10:27:23.875Z,30.47
2018-03-03T10:29:51.514Z,31.17
2018-03-03T10:32:19.208Z,30.80
2018-03-03T10:34:47.609Z,31.07
2018-03-03T10:37:15.277Z,32.67
2018-03-03T10:39:42.923Z,31.83
2018-03-03T10:42:10.604Z,33.37
2018-03-03T10:44:38.419Z,32.77
2018-03-03T10:47:06.084Z,32.53
2018-03-03T10:49:33.755Z,31.73
2018-03-03T10:52:01.403Z,32.63
2018-03-03T10:54:29.077Z,31.80
2018-03-03T10:56:56.738Z,32.67
2018-03-03T10:59:24.403Z,32.70
2018-03-03T11:01:52.041Z,32.33
2018-03-03T11:04:19.621Z,31.83
2018-03-03T11:06:47.195Z,32.40
2018-03-03T11:09:15.644Z,33.13
2018-03-03T11:11:43.296Z,33.60
2018-03-03T11:14:10.924Z,33.00
2018-03-03T11:16:38.551Z,33.17
2018-03-03T11:19:06.218Z,32.43
2018-03-03T11:21:33.882Z,31.53
2018-03-03T11:24:01.528Z,32.33
2018-03-03T11:26:29.184Z,32.87
2018-03-03T11:28:56.841Z,32.30
2018-03-03T11:31:24.489Z,32.53
2018-03-03T11:33:52.165Z,31.70
2018-03-03T11:36:20.143Z,32.83
2018-03-03T11:38:47.796Z,33.63
2018-03-03T11:41:15.601Z,32.73
2018-03-03T11:43:43.255Z,32.63
2018-03-03T11:46:10.930Z,34.33
2018-03-03T11:48:39.405Z,31.77
2018-03-03T11:51:07.059Z,32.90
2018-03-03T11:53:34.712Z,31.93
2018-03-03T11:56:02.383Z,32.37
2018-03-03T11:58:30.040Z,33.03
2018-03-03T12:00:57.788Z,32.43
2018-03-03T12:03:25.427Z,33.47
2018-03-03T12:06:01.355Z,33.13
2018-03-03T12:08:29.824Z,33.40
2018-03-03T12:10:57.487Z,32.33
2018-03-03T12:13:25.149Z,34.03
2018-03-03T12:15:52.778Z,31.97
2018-03-03T12:18:20.445Z,32.90
2018-03-03T12:20:48.095Z,33.97
2018-03-03T12:23:15.736Z,34.27
2018-03-03T12:25:43.411Z,33.60
2018-03-03T12:28:11.093Z,34.13
2018-03-03T12:30:38.741Z,32.90
2018-03-03T12:33:06.797Z,34.80
2018-03-03T12:35:34.607Z,32.80
2018-03-03T12:38:02.266Z,32.43
2018-03-03T12:40:29.897Z,34.27
2018-03-03T12:42:57.555Z,33.27
2018-03-03T12:45:25.228Z,33.00
2018-03-03T12:47:52.920Z,33.47
2018-03-03T12:50:20.588Z,33.40
2018-03-03T12:52:48.194Z,34.50
2018-03-03T12:55:15.986Z,33.50
2018-03-03T12:57:43.625Z,34.43
2018-03-03T13:00:11.293Z,33.50
2018-03-03T13:02:38.932Z,33.47
2018-03-03T13:05:07.451Z,34.70
2018-03-03T13:07:35.080Z,34.50
2018-03-03T13:10:03.581Z,34.57
2018-03-03T13:12:32.039Z,34.30
2018-03-03T13:14:59.695Z,34.87
2018-03-03T13:17:27.352Z,34.03
2018-03-03T13:19:55.032Z,34.13
2018-03-03T13:22:22.692Z,36.40
2018-03-03T13:24:50.362Z,34.93
2018-03-03T13:27:17.999Z,35.80
2018-03-03T13:29:45.676Z,35.17
2018-03-03T13:32:13.333Z,35.47
2018-03-03T13:34:53.767Z,34.50
2018-03-03T13:37:21.405Z,33.70
2018-03-03T13:39:49.056Z,34.87
2018-03-03T13:42:16.707Z,33.33
2018-03-03T13:44:44.375Z,32.73
2018-03-03T13:47:12.786Z,33.57
2018-03-03T13:49:40.468Z,34.27
2018-03-03T13:52:08.092Z,33.43
2018-03-03T13:54:35.801Z,34.97
2018-03-03T13:57:03.463Z,33.77
2018-03-03T13:59:31.130Z,35.50
2018-03-03T14:01:58.805Z,34.63
2018-03-03T14:04:30.438Z,34.03
2018-03-03T14:06:58.135Z,33.90
2018-03-03T14:09:25.776Z,33.50
2018-03-03T14:11:53.444Z,34.53
2018-03-03T14:14:21.037Z,35.47
2018-03-03T14:16:49.479Z,33.30
2018-03-03T14:19:17.127Z,35.57
2018-03-03T14:21:44.814Z,33.50
2018-03-03T14:24:12.496Z,34.67
2018-03-03T14:26:40.329Z,34.03
2018-03-03T14:29:07.996Z,34.53
2018-03-03T14:31:35.646Z,34.03
2018-03-03T14:34:03.309Z,34.17
2018-03-03T14:36:30.998Z,34.87
2018-03-03T14:38:58.652Z,33.83
2018-03-03T14:41:26.314Z,34.57
2018-03-03T14:43:53.981Z,36.57
2018-03-03T14:46:21.632Z,36.40
2018-03-03T14:48:49.322Z,35.30
2018-03-03T14:51:17.131Z,33.60
2018-03-03T14:53:44.842Z,36.07
2018-03-03T14:56:12.585Z,35.33
2018-03-03T14:58:40.262Z,35.97
2018-03-03T15:01:07.940Z,35.63
2018-03-03T15:03:35.639Z,36.17
2018-03-03T15:06:03.301Z,35.20
2018-03-03T15:08:30.998Z,33.67
2018-03-03T15:10:58.652Z,35.13
2018-03-03T15:13:26.348Z,34.93
2018-03-03T15:15:54.012Z,35.17
2018-03-03T15:18:21.696Z,35.27
2018-03-03T15:20:50.118Z,35.40
2018-03-03T15:23:18.533Z,33.93
2018-03-03T15:25:47.314Z,34.90
2018-03-03T15:28:15.006Z,34.60
2018-03-03T15:30:42.649Z,35.20
2018-03-03T15:33:10.312Z,35.17
2018-03-03T15:35:37.945Z,35.33
2018-03-03T15:38:06.388Z,35.73
2018-03-03T15:40:34.786Z,34.40
2018-03-03T15:43:02.481Z,33.30
2018-03-03T15:45:30.163Z,33.17
2018-03-03T15:47:58.132Z,34.90
2018-03-03T15:50:25.816Z,34.73
2018-03-03T15:52:53.496Z,36.00
2018-03-03T15:55:22.308Z,34.90
2018-03-03T15:57:49.938Z,34.77
2018-03-03T16:00:17.584Z,35.17
2018-03-03T16:02:45.268Z,34.77
2018-03-03T16:05:17.403Z,34.87
2018-03-03T16:07:45.066Z,32.70
2018-03-03T16:10:12.714Z,35.40
2018-03-03T16:12:40.870Z,34.33
2018-03-03T16:15:13.032Z,34.33
2018-03-03T16:17:40.711Z,35.20
2018-03-03T16:20:08.389Z,34.93
2018-03-03T16:22:36.048Z,34.07
2018-03-03T16:25:03.747Z,33.60
2018-03-03T16:27:31.418Z,33.97
2018-03-03T16:29:59.078Z,34.53
2018-03-03T16:32:26.746Z,34.83
2018-03-03T16:34:55.173Z,33.33
2018-03-03T16:37:22.813Z,33.60
2018-03-03T16:39:50.507Z,34.73
2018-03-03T16:42:18.140Z,33.17
2018-03-03T16:44:45.854Z,32.30
2018-03-03T16:47:13.525Z,33.93
2018-03-03T16:49:41.256Z,32.97
2018-03-03T16:52:08.941Z,33.13
2018-03-03T16:54:36.594Z,32.93
2018-03-03T16:57:04.264Z,32.47
2018-03-03T16:59:31.942Z,33.47
2018-03-03T17:01:59.600Z,32.70
2018-03-03T17:04:27.271Z,32.77
2018-03-03T17:06:54.898Z,33.90
2018-03-03T17:09:22.558Z,31.77
2018-03-03T17:11:50.235Z,32.17
2018-03-03T17:14:17.881Z,32.13
2018-03-03T17:16:45.560Z,31.47
2018-03-03T17:19:13.222Z,31.83
2018-03-03T17:21:40.872Z,32.93
2018-03-03T17:24:08.555Z,31.10
2018-03-03T17:26:36.236Z,31.53
2018-03-03T17:29:03.902Z,31.80
2018-03-03T17:31:31.568Z,32.10
2018-03-03T17:33:59.261Z,32.37
2018-03-03T17:36:27.143Z,32.77
2018-03-03T17:38:54.830Z,31.80
2018-03-03T17:41:22.519Z,33.60
2018-03-03T17:43:50.164Z,33.07
2018-03-03T17:46:17.966Z,34.27
2018-03-03T17:48:46.416Z,33.63
2018-03-03T17:51:14.089Z,33.03
2018-03-03T17:53:41.798Z,33.10
2018-03-03T17:56:10.254Z,34.30
2018-03-03T17:58:37.900Z,33.73
2018-03-03T18:01:05.576Z,34.23
2018-03-03T18:03:33.218Z,33.80
2018-03-03T18:06:00.978Z,32.97
2018-03-03T18:08:28.648Z,35.47
2018-03-03T18:10:56.303Z,36.07
2018-03-03T18:13:32.511Z,34.53
2018-03-03T18:16:00.958Z,34.50
2018-03-03T18:18:30.400Z,34.77
2018-03-03T18:20:58.098Z,36.47
2018-03-03T18:23:25.753Z,34.83
2018-03-03T18:25:53.549Z,35.73
2018-03-03T18:28:21.208Z,34.60
2018-03-03T18:30:48.886Z,35.70
2018-03-03T18:33:16.554Z,35.73
2018-03-03T18:35:44.228Z,35.77
2018-03-03T18:38:11.887Z,35.40
2018-03-03T18:40:39.527Z,34.90
2018-03-03T18:43:07.162Z,35.20
2018-03-03T18:45:34.834Z,35.13
2018-03-03T18:48:02.478Z,36.73
2018-03-03T18:50:30.136Z,35.73
2018-03-03T18:52:57.787Z,35.03
2018-03-03T18:55:26.389Z,37.50
2018-03-03T18:57:54.048Z,37.33
2018-03-03T19:00:21.731Z,36.17
2018-03-03T19:02:49.388Z,37.57
2018-03-03T19:05:17.736Z,37.60
2018-03-03T19:07:46.119Z,37.13
2018-03-03T19:10:14.556Z,37.10
2018-03-03T19:12:42.188Z,38.03
2018-03-03T19:15:09.844Z,35.83
2018-03-03T19:17:37.491Z,35.13
2018-03-03T19:20:05.943Z,38.43
2018-03-03T19:22:33.592Z,37.57
2018-03-03T19:25:02.356Z,35.40
2018-03-03T19:27:29.995Z,37.77
2018-03-03T19:29:57.659Z,36.77
2018-03-03T19:32:25.331Z,36.97
2018-03-03T19:34:52.986Z,37.77
2018-03-03T19:37:20.628Z,36.90
2018-03-03T19:39:48.288Z,36.13
2018-03-03T19:42:16.735Z,37.50
2018-03-03T19:44:44.387Z,35.83
2018-03-03T19:47:12.059Z,38.33
2018-03-03T19:49:39.691Z,37.27
2018-03-03T19:52:07.340Z,35.60
2018-03-03T19:54:35.859Z,36.27
2018-03-03T19:57:03.520Z,39.00
2018-03-03T19:59:31.197Z,38.27
2018-03-03T20:01:58.854Z,36.23
2018-03-03T20:04:26.505Z,38.93
2018-03-03T20:06:54.160Z,39.07
2018-03-03T20:09:21.844Z,38.83
2018-03-03T20:11:49.515Z,38.90
2018-03-03T20:14:17.164Z,38.43
2018-03-03T20:16:44.833Z,39.00
2018-03-03T20:19:12.494Z,37.93
2018-03-03T20:21:40.152Z,38.13
2018-03-03T20:24:07.815Z,36.73
2018-03-03T20:26:35.462Z,38.90
2018-03-03T20:29:03.132Z,38.37
2018-03-03T20:31:30.785Z,37.30
2018-03-03T20:33:58.464Z,38.27
2018-03-03T20:36:26.118Z,38.33
2018-03-03T20:38:53.784Z,36.87
2018-03-03T20:41:21.480Z,36.63
2018-03-03T20:43:49.134Z,36.20
2018-03-03T20:46:18.010Z,35.60
2018-03-03T20:48:45.663Z,36.30
2018-03-03T20:51:13.357Z,34.97
2018-03-03T20:53:41.025Z,35.83
2018-03-03T20:56:08.697Z,32.40
2018-03-03T20:58:36.353Z,34.47
2018-03-03T21:01:04.055Z,40.90
2018-03-03T21:03:31.716Z,41.27
2018-03-03T21:06:00.152Z,42.67
2018-03-03T21:08:27.835Z,44.20
2018-03-03T21:10:55.531Z,44.20
2018-03-03T21:13:23.218Z,45.17
2018-03-03T21:16:00.363Z,43.33
2018-03-03T21:18:28.796Z,41.80
2018-03-03T21:20:56.451Z,42.73
2018-03-03T21:23:24.133Z,43.17
2018-03-03T21:25:51.816Z,42.10
2018-03-03T21:28:19.456Z,41.93
2018-03-03T21:30:47.123Z,40.23
2018-03-03T21:33:14.784Z,38.10
2018-03-03T21:35:42.435Z,38.13
2018-03-03T21:38:10.083Z,39.03
2018-03-03T21:40:37.739Z,37.43
2018-03-03T21:43:05.382Z,39.07
2018-03-03T21:45:46.129Z,39.83
2018-03-03T21:48:13.779Z,38.43
2018-03-03T21:50:41.448Z,38.00
2018-03-03T21:53:09.125Z,37.77
2018-03-03T21:55:37.555Z,38.13
2018-03-03T21:58:05.206Z,37.57
2018-03-03T22:00:32.870Z,37.57
2018-03-03T22:03:00.545Z,36.47
2018-03-03T22:05:28.188Z,36.97
2018-03-03T22:07:55.896Z,37.27
2018-03-03T22:10:23.537Z,35.80
2018-03-03T22:12:51.184Z,35.37
2018-03-03T22:15:20.011Z,34.60
2018-03-03T22:17:47.670Z,36.03
2018-03-03T22:20:15.361Z,36.43
2018-03-03T22:22:43.774Z,34.90
2018-03-03T22:25:11.473Z,34.57
2018-03-03T22:27:39.194Z,35.20
2018-03-03T22:30:06.829Z,34.33
2018-03-03T22:32:34.485Z,34.43
2018-03-03T22:35:02.147Z,34.83
2018-03-03T22:37:29.814Z,36.17
2018-03-03T22:39:57.485Z,34.03
2018-03-03T22:42:25.114Z,34.47
2018-03-03T22:44:52.878Z,35.20
2018-03-03T22:47:20.569Z,33.77
2018-03-03T22:49:48.249Z,35.33
2018-03-03T22:52:15.902Z,35.43
2018-03-03T22:54:43.576Z,34.87
2018-03-03T22:57:12.043Z,35.20
2018-03-03T22:59:39.695Z,34.10
2018-03-03T23:02:07.380Z,35.30
2018-03-03T23:04:35.013Z,34.83
2018-03-03T23:07:02.688Z,35.33
2018-03-03T23:09:30.341Z,33.97
2018-03-03T23:11:58.008Z,33.57
2018-03-03T23:14:25.698Z,33.87
2018-03-03T23:16:54.120Z,35.43
2018-03-03T23:19:21.809Z,35.50
2018-03-03T23:21:49.493Z,35.67
2018-03-03T23:24:17.154Z,34.80
2018-03-03T23:26:44.806Z,35.23
2018-03-03T23:29:12.454Z,34.40
2018-03-03T23:31:40.123Z,35.47
2018-03-03T23:34:07.782Z,36.10
2018-03-03T23:36:35.619Z,36.73
2018-03-03T23:39:03.384Z,37.40
2018-03-03T23:41:31.039Z,36.60
2018-03-03T23:43:58.697Z,35.90
2018-03-03T23:46:26.370Z,35.17
2018-03-03T23:48:54.036Z,35.33
2018-03-03T23:51:21.831Z,35.13
2018-03-03T23:53:49.521Z,33.97
2018-03-03T23:56:17.178Z,36.07
2018-03-03T23:58:44.861Z,34.67
